sensor_id;sensor_type;location;lat;lon;timestamp;pressure;altitude;pressure_sealevel;temperature;humidity
7532;BME280;3807;49.030;8.714;2022-10-16T00:01:10;99122.88;;;18.42;74.73
7532;BME280;3807;49.030;8.714;2022-10-16T00:03:37;99126.97;;;18.44;74.65
7532;BME280;3807;49.030;8.714;2022-10-16T00:06:03;99120.91;;;18.45;74.53
7532;BME280;3807;49.030;8.714;2022-10-16T00:08:29;99109.37;;;18.38;74.83
7532;BME280;3807;49.030;8.714;2022-10-16T00:11:03;99108.72;;;18.47;74.42
7532;BME280;3807;49.030;8.714;2022-10-16T00:13:29;99120.50;;;18.51;74.34
7532;BME280;3807;49.030;8.714;2022-10-16T00:15:56;99127.28;;;18.52;74.33
7532;BME280;3807;49.030;8.714;2022-10-16T00:18:22;99124.50;;;18.55;74.17
7532;BME280;3807;49.030;8.714;2022-10-16T00:20:47;99128.12;;;18.53;74.20
7532;BME280;3807;49.030;8.714;2022-10-16T00:23:13;99128.84;;;18.55;74.06
7532;BME280;3807;49.030;8.714;2022-10-16T00:25:38;99126.06;;;18.45;74.51
7532;BME280;3807;49.030;8.714;2022-10-16T00:28:03;99126.28;;;18.42;74.55
7532;BME280;3807;49.030;8.714;2022-10-16T00:30:29;99130.16;;;18.48;74.37
7532;BME280;3807;49.030;8.714;2022-10-16T00:32:55;99120.94;;;18.32;74.84
7532;BME280;3807;49.030;8.714;2022-10-16T00:35:20;99127.84;;;18.32;74.93
7532;BME280;3807;49.030;8.714;2022-10-16T00:37:46;99124.44;;;18.31;74.84
7532;BME280;3807;49.030;8.714;2022-10-16T00:40:11;99120.00;;;18.33;74.86
7532;BME280;3807;49.030;8.714;2022-10-16T00:42:37;99128.16;;;18.27;75.10
7532;BME280;3807;49.030;8.714;2022-10-16T00:45:03;99128.78;;;18.31;74.84
7532;BME280;3807;49.030;8.714;2022-10-16T00:47:40;99130.63;;;18.42;74.61
7532;BME280;3807;49.030;8.714;2022-10-16T00:50:32;99128.56;;;18.34;74.85
7532;BME280;3807;49.030;8.714;2022-10-16T00:52:59;99122.47;;;18.35;74.79
7532;BME280;3807;49.030;8.714;2022-10-16T00:55:26;99123.00;;;18.27;75.12
7532;BME280;3807;49.030;8.714;2022-10-16T00:57:53;99122.28;;;18.38;74.65
7532;BME280;3807;49.030;8.714;2022-10-16T01:00:21;99120.09;;;18.32;74.89
7532;BME280;3807;49.030;8.714;2022-10-16T01:02:55;99129.41;;;18.35;74.85
7532;BME280;3807;49.030;8.714;2022-10-16T01:05:23;99126.41;;;18.28;74.93
7532;BME280;3807;49.030;8.714;2022-10-16T01:07:58;99118.97;;;18.23;75.17
7532;BME280;3807;49.030;8.714;2022-10-16T01:10:35;99129.19;;;18.25;75.17
7532;BME280;3807;49.030;8.714;2022-10-16T01:13:10;99136.41;;;18.20;75.36
7532;BME280;3807;49.030;8.714;2022-10-16T01:15:44;99134.56;;;18.22;75.18
7532;BME280;3807;49.030;8.714;2022-10-16T01:18:21;99143.19;;;18.33;74.87
7532;BME280;3807;49.030;8.714;2022-10-16T01:20:58;99148.34;;;18.33;74.69
7532;BME280;3807;49.030;8.714;2022-10-16T01:26:12;99151.66;;;18.36;74.50
7532;BME280;3807;49.030;8.714;2022-10-16T01:28:49;99146.63;;;18.34;74.62
7532;BME280;3807;49.030;8.714;2022-10-16T01:31:19;99151.88;;;18.32;74.63
7532;BME280;3807;49.030;8.714;2022-10-16T01:33:50;99147.72;;;18.30;74.73
7532;BME280;3807;49.030;8.714;2022-10-16T01:36:21;99145.06;;;18.31;74.64
7532;BME280;3807;49.030;8.714;2022-10-16T01:38:51;99140.44;;;18.24;74.83
7532;BME280;3807;49.030;8.714;2022-10-16T01:41:24;99140.72;;;18.19;75.11
7532;BME280;3807;49.030;8.714;2022-10-16T01:44:02;99144.88;;;18.35;74.63
7532;BME280;3807;49.030;8.714;2022-10-16T01:46:30;99146.09;;;18.42;74.22
7532;BME280;3807;49.030;8.714;2022-10-16T01:48:57;99137.94;;;18.35;74.36
7532;BME280;3807;49.030;8.714;2022-10-16T01:51:24;99129.88;;;18.40;74.17
7532;BME280;3807;49.030;8.714;2022-10-16T01:53:53;99132.78;;;18.35;74.34
7532;BME280;3807;49.030;8.714;2022-10-16T01:56:20;99135.25;;;18.37;74.30
7532;BME280;3807;49.030;8.714;2022-10-16T01:58:54;99135.78;;;18.29;74.75
7532;BME280;3807;49.030;8.714;2022-10-16T02:01:23;99136.72;;;18.28;74.58
7532;BME280;3807;49.030;8.714;2022-10-16T02:03:52;99134.56;;;18.22;74.93
7532;BME280;3807;49.030;8.714;2022-10-16T02:06:19;99132.25;;;18.30;74.62
7532;BME280;3807;49.030;8.714;2022-10-16T02:08:45;99133.31;;;18.15;75.10
7532;BME280;3807;49.030;8.714;2022-10-16T02:11:11;99137.25;;;18.07;75.42
7532;BME280;3807;49.030;8.714;2022-10-16T02:13:39;99138.47;;;18.27;74.70
7532;BME280;3807;49.030;8.714;2022-10-16T02:16:09;99131.03;;;18.23;74.72
7532;BME280;3807;49.030;8.714;2022-10-16T02:18:35;99144.78;;;18.11;75.20
7532;BME280;3807;49.030;8.714;2022-10-16T02:21:23;99132.09;;;18.20;74.86
7532;BME280;3807;49.030;8.714;2022-10-16T02:26:44;99135.28;;;18.11;75.24
7532;BME280;3807;49.030;8.714;2022-10-16T02:29:13;99139.91;;;18.19;74.94
7532;BME280;3807;49.030;8.714;2022-10-16T02:31:43;99145.28;;;18.16;75.04
7532;BME280;3807;49.030;8.714;2022-10-16T02:34:12;99141.75;;;18.29;74.54
7532;BME280;3807;49.030;8.714;2022-10-16T02:36:39;99147.44;;;18.22;74.63
7532;BME280;3807;49.030;8.714;2022-10-16T02:39:06;99143.50;;;18.29;74.32
7532;BME280;3807;49.030;8.714;2022-10-16T02:41:32;99150.00;;;18.09;75.20
7532;BME280;3807;49.030;8.714;2022-10-16T02:43:57;99153.81;;;18.16;74.87
7532;BME280;3807;49.030;8.714;2022-10-16T02:46:22;99161.25;;;18.21;74.60
7532;BME280;3807;49.030;8.714;2022-10-16T02:48:48;99162.81;;;18.11;74.91
7532;BME280;3807;49.030;8.714;2022-10-16T02:51:13;99167.75;;;18.14;74.86
7532;BME280;3807;49.030;8.714;2022-10-16T02:53:39;99151.56;;;18.24;74.49
7532;BME280;3807;49.030;8.714;2022-10-16T02:56:04;99149.41;;;18.18;74.54
7532;BME280;3807;49.030;8.714;2022-10-16T02:58:29;99161.66;;;18.15;74.80
7532;BME280;3807;49.030;8.714;2022-10-16T03:00:55;99155.06;;;18.11;74.97
7532;BME280;3807;49.030;8.714;2022-10-16T03:03:20;99150.50;;;18.27;74.12
7532;BME280;3807;49.030;8.714;2022-10-16T03:05:45;99146.53;;;18.10;74.72
7532;BME280;3807;49.030;8.714;2022-10-16T03:08:12;99153.94;;;18.15;74.58
7532;BME280;3807;49.030;8.714;2022-10-16T03:10:37;99155.06;;;18.11;74.83
7532;BME280;3807;49.030;8.714;2022-10-16T03:13:03;99162.69;;;18.12;74.89
7532;BME280;3807;49.030;8.714;2022-10-16T03:15:28;99160.22;;;18.11;74.89
7532;BME280;3807;49.030;8.714;2022-10-16T03:17:54;99169.28;;;18.16;74.45
7532;BME280;3807;49.030;8.714;2022-10-16T03:20:20;99166.00;;;18.14;74.71
7532;BME280;3807;49.030;8.714;2022-10-16T03:22:45;99163.63;;;18.11;74.77
7532;BME280;3807;49.030;8.714;2022-10-16T03:25:10;99168.16;;;18.07;74.84
7532;BME280;3807;49.030;8.714;2022-10-16T03:27:35;99165.91;;;18.03;75.03
7532;BME280;3807;49.030;8.714;2022-10-16T03:30:01;99165.78;;;18.04;74.85
7532;BME280;3807;49.030;8.714;2022-10-16T03:32:27;99174.53;;;18.02;75.02
7532;BME280;3807;49.030;8.714;2022-10-16T03:34:53;99168.75;;;17.98;75.02
7532;BME280;3807;49.030;8.714;2022-10-16T03:37:19;99167.94;;;17.98;75.08
7532;BME280;3807;49.030;8.714;2022-10-16T03:39:45;99161.97;;;17.97;75.05
7532;BME280;3807;49.030;8.714;2022-10-16T03:42:10;99163.63;;;17.98;74.96
7532;BME280;3807;49.030;8.714;2022-10-16T03:44:35;99154.97;;;17.99;74.88
7532;BME280;3807;49.030;8.714;2022-10-16T03:47:01;99157.44;;;18.01;74.87
7532;BME280;3807;49.030;8.714;2022-10-16T03:49:26;99159.19;;;18.00;74.93
7532;BME280;3807;49.030;8.714;2022-10-16T03:51:51;99167.03;;;18.12;74.47
7532;BME280;3807;49.030;8.714;2022-10-16T03:54:17;99167.75;;;18.01;74.80
7532;BME280;3807;49.030;8.714;2022-10-16T03:56:42;99172.78;;;18.02;74.77
7532;BME280;3807;49.030;8.714;2022-10-16T03:59:07;99175.06;;;17.94;75.02
7532;BME280;3807;49.030;8.714;2022-10-16T04:01:33;99173.00;;;17.99;74.87
7532;BME280;3807;49.030;8.714;2022-10-16T04:03:58;99173.31;;;18.07;74.49
7532;BME280;3807;49.030;8.714;2022-10-16T04:06:24;99175.06;;;18.07;74.51
7532;BME280;3807;49.030;8.714;2022-10-16T04:08:49;99170.81;;;18.06;74.50
7532;BME280;3807;49.030;8.714;2022-10-16T04:11:14;99163.19;;;17.92;75.04
7532;BME280;3807;49.030;8.714;2022-10-16T04:13:40;99155.69;;;18.01;74.75
7532;BME280;3807;49.030;8.714;2022-10-16T04:16:06;99154.97;;;17.87;75.23
7532;BME280;3807;49.030;8.714;2022-10-16T04:18:32;99167.00;;;17.86;75.33
7532;BME280;3807;49.030;8.714;2022-10-16T04:21:02;99162.47;;;17.90;75.20
7532;BME280;3807;49.030;8.714;2022-10-16T04:23:27;99163.19;;;17.92;75.07
7532;BME280;3807;49.030;8.714;2022-10-16T04:25:53;99168.03;;;17.83;75.35
7532;BME280;3807;49.030;8.714;2022-10-16T04:28:18;99175.88;;;17.82;75.50
7532;BME280;3807;49.030;8.714;2022-10-16T04:30:43;99180.31;;;17.93;75.03
7532;BME280;3807;49.030;8.714;2022-10-16T04:33:09;99181.44;;;18.01;74.53
7532;BME280;3807;49.030;8.714;2022-10-16T04:35:35;99190.81;;;17.90;74.97
7532;BME280;3807;49.030;8.714;2022-10-16T04:38:00;99192.66;;;17.88;75.08
7532;BME280;3807;49.030;8.714;2022-10-16T04:40:25;99203.78;;;17.88;75.10
7532;BME280;3807;49.030;8.714;2022-10-16T04:42:51;99201.91;;;17.77;75.46
7532;BME280;3807;49.030;8.714;2022-10-16T04:45:16;99213.03;;;17.78;75.41
7532;BME280;3807;49.030;8.714;2022-10-16T04:47:41;99203.16;;;17.84;75.14
7532;BME280;3807;49.030;8.714;2022-10-16T04:50:07;99209.88;;;17.87;75.12
7532;BME280;3807;49.030;8.714;2022-10-16T04:52:33;99213.78;;;17.80;75.25
7532;BME280;3807;49.030;8.714;2022-10-16T04:54:58;99213.97;;;17.77;75.29
7532;BME280;3807;49.030;8.714;2022-10-16T04:57:27;99218.31;;;17.76;75.38
7532;BME280;3807;49.030;8.714;2022-10-16T04:59:53;99213.59;;;17.83;75.17
7532;BME280;3807;49.030;8.714;2022-10-16T05:02:18;99206.28;;;17.90;74.72
7532;BME280;3807;49.030;8.714;2022-10-16T05:04:43;99205.03;;;17.95;74.56
7532;BME280;3807;49.030;8.714;2022-10-16T05:07:09;99195.97;;;17.90;74.74
7532;BME280;3807;49.030;8.714;2022-10-16T05:09:34;99204.59;;;17.76;75.18
7532;BME280;3807;49.030;8.714;2022-10-16T05:11:59;99211.31;;;17.78;75.19
7532;BME280;3807;49.030;8.714;2022-10-16T05:14:25;99199.72;;;17.71;75.43
7532;BME280;3807;49.030;8.714;2022-10-16T05:16:50;99199.00;;;17.69;75.57
7532;BME280;3807;49.030;8.714;2022-10-16T05:19:16;99205.16;;;17.67;75.73
7532;BME280;3807;49.030;8.714;2022-10-16T05:21:42;99217.94;;;17.68;75.67
7532;BME280;3807;49.030;8.714;2022-10-16T05:24:07;99207.53;;;17.70;75.54
7532;BME280;3807;49.030;8.714;2022-10-16T05:26:32;99199.00;;;17.69;75.54
7532;BME280;3807;49.030;8.714;2022-10-16T05:28:58;99212.88;;;17.67;75.58
7532;BME280;3807;49.030;8.714;2022-10-16T05:31:23;99202.78;;;17.63;75.68
7532;BME280;3807;49.030;8.714;2022-10-16T05:33:48;99206.78;;;17.68;75.69
7532;BME280;3807;49.030;8.714;2022-10-16T05:36:14;99212.25;;;17.63;75.68
7532;BME280;3807;49.030;8.714;2022-10-16T05:38:39;99214.97;;;17.74;75.29
7532;BME280;3807;49.030;8.714;2022-10-16T05:41:05;99211.94;;;17.68;75.45
7532;BME280;3807;49.030;8.714;2022-10-16T05:43:32;99217.53;;;17.61;75.70
7532;BME280;3807;49.030;8.714;2022-10-16T05:46:01;99221.97;;;17.72;75.18
7532;BME280;3807;49.030;8.714;2022-10-16T05:48:27;99220.41;;;17.70;75.23
7532;BME280;3807;49.030;8.714;2022-10-16T05:51:02;99227.12;;;17.72;75.17
7532;BME280;3807;49.030;8.714;2022-10-16T05:53:29;99226.19;;;17.73;75.12
7532;BME280;3807;49.030;8.714;2022-10-16T05:55:56;99228.69;;;17.75;74.91
7532;BME280;3807;49.030;8.714;2022-10-16T05:58:22;99229.78;;;17.71;75.07
7532;BME280;3807;49.030;8.714;2022-10-16T06:01:00;99237.50;;;17.71;75.10
7532;BME280;3807;49.030;8.714;2022-10-16T06:03:26;99235.00;;;17.56;75.73
7532;BME280;3807;49.030;8.714;2022-10-16T06:05:51;99238.75;;;17.65;75.39
7532;BME280;3807;49.030;8.714;2022-10-16T06:08:19;99232.53;;;17.55;75.61
7532;BME280;3807;49.030;8.714;2022-10-16T06:10:45;99225.25;;;17.61;75.61
7532;BME280;3807;49.030;8.714;2022-10-16T06:13:12;99219.03;;;17.51;75.80
7532;BME280;3807;49.030;8.714;2022-10-16T06:15:38;99231.53;;;17.57;75.58
7532;BME280;3807;49.030;8.714;2022-10-16T06:18:05;99232.53;;;17.55;75.67
7532;BME280;3807;49.030;8.714;2022-10-16T06:20:30;99228.94;;;17.57;75.56
7532;BME280;3807;49.030;8.714;2022-10-16T06:22:56;99231.84;;;17.66;75.25
7532;BME280;3807;49.030;8.714;2022-10-16T06:25:22;99232.78;;;17.65;75.22
7532;BME280;3807;49.030;8.714;2022-10-16T06:27:47;99232.03;;;17.62;75.25
7532;BME280;3807;49.030;8.714;2022-10-16T06:30:13;99253.34;;;17.79;74.63
7532;BME280;3807;49.030;8.714;2022-10-16T06:32:38;99258.97;;;17.71;74.71
7532;BME280;3807;49.030;8.714;2022-10-16T06:35:03;99254.19;;;17.65;75.10
7532;BME280;3807;49.030;8.714;2022-10-16T06:37:29;99248.06;;;17.53;75.46
7532;BME280;3807;49.030;8.714;2022-10-16T06:39:54;99247.09;;;17.42;76.03
7532;BME280;3807;49.030;8.714;2022-10-16T06:42:20;99260.50;;;17.47;75.91
7532;BME280;3807;49.030;8.714;2022-10-16T06:44:45;99271.84;;;17.44;76.07
7532;BME280;3807;49.030;8.714;2022-10-16T06:47:10;99267.13;;;17.51;75.76
7532;BME280;3807;49.030;8.714;2022-10-16T06:49:36;99275.88;;;17.48;75.79
7532;BME280;3807;49.030;8.714;2022-10-16T06:52:02;99274.22;;;17.47;76.01
7532;BME280;3807;49.030;8.714;2022-10-16T06:54:27;99288.50;;;17.66;75.53
7532;BME280;3807;49.030;8.714;2022-10-16T06:56:53;99282.84;;;17.46;75.73
7532;BME280;3807;49.030;8.714;2022-10-16T06:59:21;99287.69;;;17.65;75.22
7532;BME280;3807;49.030;8.714;2022-10-16T07:01:47;99289.66;;;17.74;74.86
7532;BME280;3807;49.030;8.714;2022-10-16T07:04:13;99288.19;;;17.70;74.74
7532;BME280;3807;49.030;8.714;2022-10-16T07:06:38;99286.22;;;17.61;75.24
7532;BME280;3807;49.030;8.714;2022-10-16T07:09:06;99293.00;;;17.76;74.65
7532;BME280;3807;49.030;8.714;2022-10-16T07:11:32;99294.84;;;17.60;75.23
7532;BME280;3807;49.030;8.714;2022-10-16T07:13:57;99291.78;;;17.68;74.95
7532;BME280;3807;49.030;8.714;2022-10-16T07:16:27;99296.22;;;17.66;74.92
7532;BME280;3807;49.030;8.714;2022-10-16T07:18:56;99297.16;;;17.65;74.97
7532;BME280;3807;49.030;8.714;2022-10-16T07:21:31;99293.50;;;17.54;75.33
7532;BME280;3807;49.030;8.714;2022-10-16T07:24:00;99289.81;;;17.58;75.29
7532;BME280;3807;49.030;8.714;2022-10-16T07:26:33;99295.09;;;17.70;74.88
7532;BME280;3807;49.030;8.714;2022-10-16T07:28:59;99298.25;;;17.75;74.66
7532;BME280;3807;49.030;8.714;2022-10-16T07:31:25;99305.06;;;17.61;75.15
7532;BME280;3807;49.030;8.714;2022-10-16T07:33:51;99301.38;;;17.66;75.03
7532;BME280;3807;49.030;8.714;2022-10-16T07:36:18;99312.41;;;17.68;74.97
7532;BME280;3807;49.030;8.714;2022-10-16T07:38:44;99320.34;;;17.65;75.16
7532;BME280;3807;49.030;8.714;2022-10-16T07:41:16;99318.09;;;17.73;74.86
7532;BME280;3807;49.030;8.714;2022-10-16T07:43:46;99320.69;;;17.73;74.90
7532;BME280;3807;49.030;8.714;2022-10-16T07:46:12;99324.38;;;17.69;74.97
7532;BME280;3807;49.030;8.714;2022-10-16T07:48:37;99323.63;;;17.67;75.11
7532;BME280;3807;49.030;8.714;2022-10-16T07:51:04;99331.34;;;17.81;74.54
7532;BME280;3807;49.030;8.714;2022-10-16T07:53:31;99336.59;;;17.79;74.75
7532;BME280;3807;49.030;8.714;2022-10-16T07:56:01;99337.75;;;17.88;74.37
7532;BME280;3807;49.030;8.714;2022-10-16T07:58:28;99329.56;;;17.96;73.85
7532;BME280;3807;49.030;8.714;2022-10-16T08:00:54;99335.75;;;17.93;73.95
7532;BME280;3807;49.030;8.714;2022-10-16T08:03:19;99339.06;;;17.81;74.52
7532;BME280;3807;49.030;8.714;2022-10-16T08:05:44;99347.63;;;17.81;74.57
7532;BME280;3807;49.030;8.714;2022-10-16T08:08:14;99350.00;;;17.84;74.57
7532;BME280;3807;49.030;8.714;2022-10-16T08:10:40;99356.91;;;17.84;74.59
7532;BME280;3807;49.030;8.714;2022-10-16T08:13:05;99359.31;;;17.73;75.41
7532;BME280;3807;49.030;8.714;2022-10-16T08:15:31;99362.38;;;17.79;74.92
7532;BME280;3807;49.030;8.714;2022-10-16T08:18:02;99361.13;;;17.85;74.88
7532;BME280;3807;49.030;8.714;2022-10-16T08:20:28;99360.44;;;17.83;74.91
7532;BME280;3807;49.030;8.714;2022-10-16T08:22:54;99347.59;;;17.96;74.41
7532;BME280;3807;49.030;8.714;2022-10-16T08:25:21;99356.78;;;18.00;74.17
7532;BME280;3807;49.030;8.714;2022-10-16T08:27:46;99360.37;;;17.97;74.12
7532;BME280;3807;49.030;8.714;2022-10-16T08:30:12;99343.72;;;18.03;74.71
7532;BME280;3807;49.030;8.714;2022-10-16T08:32:37;99350.81;;;17.99;76.12
7532;BME280;3807;49.030;8.714;2022-10-16T08:35:03;99353.22;;;18.15;76.03
7532;BME280;3807;49.030;8.714;2022-10-16T08:37:32;99350.25;;;18.21;76.25
7532;BME280;3807;49.030;8.714;2022-10-16T08:39:58;99355.66;;;18.31;75.81
7532;BME280;3807;49.030;8.714;2022-10-16T08:48:09;99372.19;;;18.41;75.91
7532;BME280;3807;49.030;8.714;2022-10-16T08:50:40;99370.50;;;18.40;76.11
7532;BME280;3807;49.030;8.714;2022-10-16T08:53:06;99378.66;;;18.34;76.45
7532;BME280;3807;49.030;8.714;2022-10-16T08:55:43;99368.75;;;18.41;77.03
7532;BME280;3807;49.030;8.714;2022-10-16T08:58:12;99377.03;;;18.46;76.19
7532;BME280;3807;49.030;8.714;2022-10-16T09:00:38;99375.91;;;18.50;75.82
7532;BME280;3807;49.030;8.714;2022-10-16T09:06:07;99386.09;;;19.17;77.68
7532;BME280;3807;49.030;8.714;2022-10-16T09:08:45;99396.00;;;19.23;76.51
7532;BME280;3807;49.030;8.714;2022-10-16T09:13:55;99400.88;;;19.02;76.99
7532;BME280;3807;49.030;8.714;2022-10-16T09:16:31;99405.09;;;19.03;76.34
7532;BME280;3807;49.030;8.714;2022-10-16T09:19:04;99407.37;;;18.95;76.75
7532;BME280;3807;49.030;8.714;2022-10-16T09:21:41;99416.97;;;18.93;77.34
7532;BME280;3807;49.030;8.714;2022-10-16T09:24:13;99416.97;;;19.06;76.17
7532;BME280;3807;49.030;8.714;2022-10-16T09:26:39;99422.63;;;19.11;76.51
7532;BME280;3807;49.030;8.714;2022-10-16T09:29:04;99423.69;;;19.08;76.18
7532;BME280;3807;49.030;8.714;2022-10-16T09:31:29;99425.34;;;19.22;75.65
7532;BME280;3807;49.030;8.714;2022-10-16T09:33:58;99427.41;;;19.30;75.42
7532;BME280;3807;49.030;8.714;2022-10-16T09:36:25;99421.31;;;19.31;75.50
7532;BME280;3807;49.030;8.714;2022-10-16T09:39:03;99427.50;;;19.41;75.10
7532;BME280;3807;49.030;8.714;2022-10-16T09:41:29;99434.53;;;19.39;75.22
7532;BME280;3807;49.030;8.714;2022-10-16T09:43:57;99437.50;;;19.45;74.90
7532;BME280;3807;49.030;8.714;2022-10-16T09:48:55;99448.66;;;19.59;74.42
7532;BME280;3807;49.030;8.714;2022-10-16T09:51:33;99451.69;;;19.52;75.15
7532;BME280;3807;49.030;8.714;2022-10-16T09:54:21;99447.44;;;19.51;75.44
7532;BME280;3807;49.030;8.714;2022-10-16T09:56:47;99444.97;;;19.63;74.68
7532;BME280;3807;49.030;8.714;2022-10-16T09:59:26;99448.44;;;19.62;74.71
7532;BME280;3807;49.030;8.714;2022-10-16T10:02:01;99449.94;;;19.53;75.46
7532;BME280;3807;49.030;8.714;2022-10-16T10:04:38;99459.22;;;19.68;76.51
7532;BME280;3807;49.030;8.714;2022-10-16T10:07:05;99466.66;;;19.73;74.57
7532;BME280;3807;49.030;8.714;2022-10-16T10:09:37;99469.22;;;19.73;75.20
7532;BME280;3807;49.030;8.714;2022-10-16T10:12:05;99474.38;;;19.86;74.28
7532;BME280;3807;49.030;8.714;2022-10-16T10:14:39;99476.97;;;19.98;74.19
7532;BME280;3807;49.030;8.714;2022-10-16T10:33:35;99482.59;;;20.16;74.39
7532;BME280;3807;49.030;8.714;2022-10-16T10:39:02;99478.72;;;20.22;74.40
7532;BME280;3807;49.030;8.714;2022-10-16T10:46:41;99473.03;;;20.30;74.30
7532;BME280;3807;49.030;8.714;2022-10-16T10:54:45;99480.28;;;20.49;74.07
7532;BME280;3807;49.030;8.714;2022-10-16T10:57:21;99478.88;;;20.44;74.10
7532;BME280;3807;49.030;8.714;2022-10-16T11:05:42;99466.81;;;20.56;73.31
7532;BME280;3807;49.030;8.714;2022-10-16T11:10:45;99470.81;;;20.84;72.70
7532;BME280;3807;49.030;8.714;2022-10-16T11:13:23;99462.00;;;20.87;72.52
7532;BME280;3807;49.030;8.714;2022-10-16T11:15:55;99470.50;;;20.89;72.33
7532;BME280;3807;49.030;8.714;2022-10-16T11:18:32;99473.91;;;20.89;73.15
7532;BME280;3807;49.030;8.714;2022-10-16T11:21:06;99470.38;;;20.90;73.15
7532;BME280;3807;49.030;8.714;2022-10-16T11:24:00;99472.97;;;20.90;73.10
7532;BME280;3807;49.030;8.714;2022-10-16T11:26:32;99476.38;;;21.02;73.30
7532;BME280;3807;49.030;8.714;2022-10-16T11:29:01;99475.84;;;21.10;72.98
7532;BME280;3807;49.030;8.714;2022-10-16T11:31:41;99481.41;;;21.16;72.69
7532;BME280;3807;49.030;8.714;2022-10-16T11:34:17;99475.63;;;21.24;72.27
7532;BME280;3807;49.030;8.714;2022-10-16T11:39:21;99477.00;;;21.41;72.40
7532;BME280;3807;49.030;8.714;2022-10-16T11:41:52;99474.63;;;21.38;71.78
7532;BME280;3807;49.030;8.714;2022-10-16T11:44:50;99472.84;;;21.50;72.02
7532;BME280;3807;49.030;8.714;2022-10-16T11:47:23;99464.62;;;21.56;70.74
7532;BME280;3807;49.030;8.714;2022-10-16T11:49:55;99467.34;;;21.66;71.01
7532;BME280;3807;49.030;8.714;2022-10-16T11:52:26;99469.91;;;21.77;70.00
7532;BME280;3807;49.030;8.714;2022-10-16T11:55:04;99460.72;;;21.84;70.87
7532;BME280;3807;49.030;8.714;2022-10-16T11:57:34;99471.19;;;21.82;70.29
7532;BME280;3807;49.030;8.714;2022-10-16T12:02:44;99464.81;;;21.98;70.69
7532;BME280;3807;49.030;8.714;2022-10-16T12:08:14;99470.59;;;22.01;70.57
7532;BME280;3807;49.030;8.714;2022-10-16T12:10:43;99469.84;;;22.10;69.77
7532;BME280;3807;49.030;8.714;2022-10-16T12:13:35;99453.16;;;22.15;67.70
7532;BME280;3807;49.030;8.714;2022-10-16T12:18:44;99459.34;;;22.34;68.25
7532;BME280;3807;49.030;8.714;2022-10-16T12:21:10;99457.44;;;22.37;68.59
7532;BME280;3807;49.030;8.714;2022-10-16T12:23:50;99460.00;;;22.48;67.70
7532;BME280;3807;49.030;8.714;2022-10-16T12:26:26;99457.88;;;22.53;68.00
7532;BME280;3807;49.030;8.714;2022-10-16T12:28:53;99460.47;;;22.53;69.62
7532;BME280;3807;49.030;8.714;2022-10-16T12:31:19;99457.41;;;22.48;68.20
7532;BME280;3807;49.030;8.714;2022-10-16T12:33:58;99462.69;;;22.57;70.02
7532;BME280;3807;49.030;8.714;2022-10-16T12:36:31;99456.44;;;22.60;69.16
7532;BME280;3807;49.030;8.714;2022-10-16T12:38:58;99455.84;;;22.56;68.96
7532;BME280;3807;49.030;8.714;2022-10-16T12:41:29;99452.69;;;22.53;69.38
7532;BME280;3807;49.030;8.714;2022-10-16T12:43:55;99454.56;;;22.51;69.41
7532;BME280;3807;49.030;8.714;2022-10-16T12:46:33;99455.03;;;22.56;69.10
7532;BME280;3807;49.030;8.714;2022-10-16T12:51:37;99456.38;;;22.71;68.64
7532;BME280;3807;49.030;8.714;2022-10-16T12:54:18;99452.72;;;22.74;68.59
7532;BME280;3807;49.030;8.714;2022-10-16T13:26:48;99470.72;;;24.69;62.89
7532;BME280;3807;49.030;8.714;2022-10-16T13:29:15;99483.03;;;24.86;62.13
7532;BME280;3807;49.030;8.714;2022-10-16T13:31:43;99481.78;;;25.00;61.97
7532;BME280;3807;49.030;8.714;2022-10-16T13:34:21;99477.25;;;25.02;61.77
7532;BME280;3807;49.030;8.714;2022-10-16T13:36:49;99466.81;;;25.22;61.27
7532;BME280;3807;49.030;8.714;2022-10-16T13:39:22;99470.34;;;25.30;60.97
7532;BME280;3807;49.030;8.714;2022-10-16T13:42:10;99471.28;;;25.39;60.78
7532;BME280;3807;49.030;8.714;2022-10-16T13:44:49;99461.53;;;25.41;60.75
7532;BME280;3807;49.030;8.714;2022-10-16T13:47:24;99469.22;;;25.42;60.69
7532;BME280;3807;49.030;8.714;2022-10-16T13:50:00;99460.53;;;25.52;60.16
7532;BME280;3807;49.030;8.714;2022-10-16T13:52:27;99457.78;;;25.53;60.04
7532;BME280;3807;49.030;8.714;2022-10-16T13:54:52;99460.97;;;25.47;60.29
7532;BME280;3807;49.030;8.714;2022-10-16T13:57:22;99467.53;;;25.51;60.39
7532;BME280;3807;49.030;8.714;2022-10-16T13:59:47;99462.72;;;25.56;59.95
7532;BME280;3807;49.030;8.714;2022-10-16T14:02:28;99473.00;;;25.58;60.01
7532;BME280;3807;49.030;8.714;2022-10-16T14:04:57;99480.00;;;25.57;60.09
7532;BME280;3807;49.030;8.714;2022-10-16T14:07:28;99468.63;;;25.49;60.17
7532;BME280;3807;49.030;8.714;2022-10-16T14:09:55;99464.25;;;25.49;60.12
7532;BME280;3807;49.030;8.714;2022-10-16T14:12:22;99471.78;;;25.52;60.10
7532;BME280;3807;49.030;8.714;2022-10-16T14:14:52;99471.38;;;25.47;60.01
7532;BME280;3807;49.030;8.714;2022-10-16T14:17:23;99463.03;;;25.43;60.28
7532;BME280;3807;49.030;8.714;2022-10-16T14:19:52;99461.78;;;25.48;60.06
7532;BME280;3807;49.030;8.714;2022-10-16T14:22:27;99473.09;;;25.38;60.24
7532;BME280;3807;49.030;8.714;2022-10-16T14:24:53;99468.97;;;25.36;60.37
7532;BME280;3807;49.030;8.714;2022-10-16T14:27:36;99465.66;;;25.34;60.38
7532;BME280;3807;49.030;8.714;2022-10-16T14:32:33;99462.78;;;25.37;60.40
7532;BME280;3807;49.030;8.714;2022-10-16T14:34:59;99462.13;;;25.35;60.40
7532;BME280;3807;49.030;8.714;2022-10-16T14:37:27;99463.06;;;25.34;60.44
7532;BME280;3807;49.030;8.714;2022-10-16T14:39:54;99456.22;;;25.33;60.47
7532;BME280;3807;49.030;8.714;2022-10-16T14:42:21;99447.69;;;25.31;60.48
7532;BME280;3807;49.030;8.714;2022-10-16T14:44:50;99455.81;;;25.28;60.45
7532;BME280;3807;49.030;8.714;2022-10-16T14:47:21;99458.41;;;25.28;60.33
7532;BME280;3807;49.030;8.714;2022-10-16T14:49:50;99451.31;;;25.20;60.89
7532;BME280;3807;49.030;8.714;2022-10-16T14:52:16;99452.97;;;25.21;60.75
7532;BME280;3807;49.030;8.714;2022-10-16T14:54:41;99454.06;;;25.09;61.10
7532;BME280;3807;49.030;8.714;2022-10-16T14:57:17;99456.38;;;25.22;60.66
7532;BME280;3807;49.030;8.714;2022-10-16T14:59:43;99453.00;;;25.11;60.92
7532;BME280;3807;49.030;8.714;2022-10-16T15:02:28;99453.22;;;25.08;60.94
7532;BME280;3807;49.030;8.714;2022-10-16T15:04:55;99452.16;;;25.11;60.55
7532;BME280;3807;49.030;8.714;2022-10-16T15:07:20;99458.44;;;25.08;60.90
7532;BME280;3807;49.030;8.714;2022-10-16T15:09:46;99462.84;;;25.08;60.89
7532;BME280;3807;49.030;8.714;2022-10-16T15:12:11;99456.94;;;25.06;61.07
7532;BME280;3807;49.030;8.714;2022-10-16T15:14:37;99458.56;;;25.07;60.99